Time;durP1;ratioP1;P1;durP2;ratioP2;P2;SDS_P1;SDS_P2;PMS_P1;PMS_P2;Temp;Humidity;BMP_temperature;BMP_pressure;BME280_temperature;BME280_humidity;BME280_pressure;Samples;Min_cycle;Max_cycle;Signal;HPM_P1;HPM_P2
2024/02/19 00:00:59;;;;;;;6.05;2.45;;;;;;;;;;5073287;28;20021;-73
2024/02/19 00:03:49;;;;;;;6.72;2.50;;;;;;;;;;5063710;28;20025;-73
2024/02/19 00:06:35;;;;;;;6.35;2.70;;;;;;;;;;5034904;28;20029;-73
2024/02/19 00:09:20;;;;;;;3.40;2.28;;;;;;;;;;5033261;28;20032;-73
2024/02/19 00:12:07;;;;;;;3.70;2.22;;;;;;;;;;5049256;28;20078;-72
2024/02/19 00:14:52;;;;;;;3.53;2.13;;;;;;;;;;5039565;28;20403;-72
2024/02/19 00:17:38;;;;;;;7.70;2.97;;;;;;;;;;5052227;28;20036;-72
2024/02/19 00:20:24;;;;;;;11.15;4.13;;;;;;;;;;5050550;28;20068;-72
2024/02/19 00:23:10;;;;;;;11.88;4.13;;;;;;;;;;5038532;28;20055;-72
2024/02/19 00:25:56;;;;;;;5.95;3.28;;;;;;;;;;5049066;28;20058;-73
2024/02/19 00:28:42;;;;;;;12.15;4.60;;;;;;;;;;5049782;28;20552;-73
2024/02/19 00:31:28;;;;;;;10.68;4.25;;;;;;;;;;5034081;28;20486;-73
2024/02/19 00:34:16;;;;;;;11.13;3.35;;;;;;;;;;5037611;28;20045;-72
2024/02/19 00:37:01;;;;;;;11.63;3.80;;;;;;;;;;5040433;28;20490;-72
2024/02/19 00:39:47;;;;;;;6.60;4.00;;;;;;;;;;5038052;28;20025;-72
2024/02/19 00:42:33;;;;;;;12.57;4.65;;;;;;;;;;5052748;28;20033;-72
2024/02/19 00:45:18;;;;;;;9.60;4.18;;;;;;;;;;5029140;28;20087;-73
2024/02/19 00:48:04;;;;;;;15.30;4.75;;;;;;;;;;5031712;28;20029;-72
2024/02/19 00:50:50;;;;;;;11.20;5.22;;;;;;;;;;5038378;28;20064;-72
2024/02/19 00:53:39;;;;;;;10.88;4.75;;;;;;;;;;5032227;28;20021;-72
2024/02/19 00:56:24;;;;;;;10.32;5.38;;;;;;;;;;5062067;28;20494;-73
2024/02/19 00:59:10;;;;;;;9.23;5.47;;;;;;;;;;5071819;28;20043;-72
2024/02/19 01:01:55;;;;;;;11.07;5.05;;;;;;;;;;5071394;28;20460;-72
2024/02/19 01:04:41;;;;;;;14.18;5.00;;;;;;;;;;5071493;28;20405;-72
2024/02/19 01:07:27;;;;;;;11.60;4.70;;;;;;;;;;5057388;28;20050;-72
2024/02/19 01:10:12;;;;;;;11.98;5.53;;;;;;;;;;5066634;28;20017;-72
2024/02/19 01:12:58;;;;;;;11.02;5.18;;;;;;;;;;5052327;28;20060;-72
2024/02/19 01:15:44;;;;;;;10.93;4.18;;;;;;;;;;5070502;28;20047;-72
2024/02/19 01:18:29;;;;;;;8.77;4.63;;;;;;;;;;5056909;28;20404;-73
2024/02/19 01:21:15;;;;;;;10.77;5.03;;;;;;;;;;5048488;28;20017;-73
2024/02/19 01:24:01;;;;;;;7.20;4.03;;;;;;;;;;5032313;28;20025;-72
2024/02/19 01:26:46;;;;;;;9.13;4.30;;;;;;;;;;5030317;28;20047;-73
2024/02/19 01:29:32;;;;;;;9.50;3.88;;;;;;;;;;5033747;28;20025;-73
2024/02/19 01:32:18;;;;;;;8.63;4.60;;;;;;;;;;5037178;28;20119;-72
2024/02/19 01:35:08;;;;;;;9.43;4.22;;;;;;;;;;5051183;28;20095;-73
2024/02/19 01:37:54;;;;;;;9.55;3.38;;;;;;;;;;5030744;28;20578;-73
2024/02/19 01:40:39;;;;;;;10.48;3.58;;;;;;;;;;5029441;28;20025;-73
2024/02/19 01:43:27;;;;;;;7.70;3.40;;;;;;;;;;5036277;28;20021;-73
2024/02/19 01:46:15;;;;;;;3.88;2.58;;;;;;;;;;5034479;28;20506;-73
2024/02/19 01:49:01;;;;;;;4.50;2.10;;;;;;;;;;5032069;28;20021;-73
2024/02/19 01:51:46;;;;;;;3.45;2.47;;;;;;;;;;5025335;28;20029;-73
2024/02/19 01:54:32;;;;;;;11.45;2.17;;;;;;;;;;5035491;28;20029;-72
2024/02/19 01:57:18;;;;;;;7.15;2.80;;;;;;;;;;5045988;28;20083;-73
2024/02/19 02:00:10;;;;;;;5.75;2.95;;;;;;;;;;5038434;28;20029;-73
2024/02/19 02:02:56;;;;;;;5.30;3.08;;;;;;;;;;5034451;28;20029;-73
2024/02/19 02:05:41;;;;;;;2.72;2.10;;;;;;;;;;5035223;28;20545;-73
2024/02/19 02:08:27;;;;;;;4.43;2.38;;;;;;;;;;5043375;28;20022;-73
2024/02/19 02:11:13;;;;;;;5.63;2.75;;;;;;;;;;5020689;28;20212;-72
2024/02/19 02:13:58;;;;;;;6.03;2.97;;;;;;;;;;5046069;28;20382;-73
2024/02/19 02:16:44;;;;;;;5.05;2.78;;;;;;;;;;5040409;28;20032;-72
2024/02/19 02:19:30;;;;;;;6.50;2.72;;;;;;;;;;5040432;28;20119;-73
2024/02/19 02:22:16;;;;;;;8.30;3.20;;;;;;;;;;5036852;28;20025;-72
2024/02/19 02:25:02;;;;;;;8.65;3.25;;;;;;;;;;5041326;28;20021;-72
2024/02/19 02:27:48;;;;;;;9.52;3.17;;;;;;;;;;5039971;28;20414;-72
2024/02/19 02:30:33;;;;;;;9.68;3.63;;;;;;;;;;5040719;28;20021;-72
2024/02/19 02:33:19;;;;;;;8.65;2.83;;;;;;;;;;5052471;28;20025;-72
2024/02/19 02:36:05;;;;;;;6.50;2.63;;;;;;;;;;5052323;28;20064;-72
2024/02/19 02:38:51;;;;;;;8.88;2.70;;;;;;;;;;5047765;28;20152;-72
2024/02/19 02:41:37;;;;;;;8.40;2.35;;;;;;;;;;5055338;28;20029;-72
2024/02/19 02:44:22;;;;;;;12.77;2.58;;;;;;;;;;5054732;28;20021;-72
2024/02/19 02:47:11;;;;;;;5.40;2.13;;;;;;;;;;5055363;28;20025;-72
2024/02/19 02:49:56;;;;;;;4.43;2.13;;;;;;;;;;5040382;28;20482;-72
2024/02/19 02:52:42;;;;;;;5.72;2.17;;;;;;;;;;5054753;28;20031;-72
2024/02/19 02:55:28;;;;;;;4.15;1.70;;;;;;;;;;5056849;28;20107;-72
2024/02/19 02:58:13;;;;;;;3.47;2.00;;;;;;;;;;5054455;28;20021;-72
2024/02/19 03:01:00;;;;;;;5.63;1.60;;;;;;;;;;5054121;28;20025;-72
2024/02/19 03:03:46;;;;;;;3.88;1.92;;;;;;;;;;5039254;28;20021;-72
2024/02/19 03:06:31;;;;;;;3.10;1.85;;;;;;;;;;5039795;28;20108;-72
2024/02/19 03:09:17;;;;;;;6.78;2.05;;;;;;;;;;5055532;28;20025;-72
2024/02/19 03:12:03;;;;;;;7.63;2.42;;;;;;;;;;5054526;28;20053;-72
2024/02/19 03:14:48;;;;;;;6.43;2.35;;;;;;;;;;5055075;28;20124;-72
2024/02/19 03:17:34;;;;;;;5.03;2.30;;;;;;;;;;5054389;28;20021;-72
2024/02/19 03:20:23;;;;;;;6.40;2.63;;;;;;;;;;5053751;28;20482;-72
2024/02/19 03:23:09;;;;;;;2.75;2.20;;;;;;;;;;5041308;28;20036;-72
2024/02/19 03:25:55;;;;;;;4.25;2.60;;;;;;;;;;5040640;28;20556;-72
2024/02/19 03:28:40;;;;;;;6.03;2.05;;;;;;;;;;5053888;28;20354;-72
2024/02/19 03:31:26;;;;;;;6.32;2.10;;;;;;;;;;5039847;28;20032;-72
2024/02/19 03:34:12;;;;;;;2.63;1.60;;;;;;;;;;5040075;28;20479;-72
2024/02/19 03:36:58;;;;;;;3.15;1.80;;;;;;;;;;5054107;28;20029;-72
2024/02/19 03:39:44;;;;;;;1.60;1.33;;;;;;;;;;5053524;28;20032;-72
2024/02/19 03:42:30;;;;;;;3.03;1.30;;;;;;;;;;5054412;28;20021;-72
2024/02/19 03:45:16;;;;;;;1.88;1.20;;;;;;;;;;5053529;28;20486;-72
2024/02/19 03:48:02;;;;;;;1.48;1.20;;;;;;;;;;5053478;28;20017;-72
2024/02/19 03:50:48;;;;;;;1.30;1.20;;;;;;;;;;5053708;28;20052;-72
2024/02/19 03:53:33;;;;;;;1.90;1.30;;;;;;;;;;5054289;28;20070;-73
2024/02/19 03:56:19;;;;;;;2.08;1.70;;;;;;;;;;5039661;28;20021;-73
2024/02/19 03:59:07;;;;;;;2.65;1.63;;;;;;;;;;5053152;28;20025;-73
2024/02/19 04:01:53;;;;;;;2.88;1.60;;;;;;;;;;5053867;28;20445;-73
2024/02/19 04:04:38;;;;;;;3.78;1.90;;;;;;;;;;5053376;28;20126;-73
2024/02/19 04:07:24;;;;;;;6.95;1.70;;;;;;;;;;5038204;28;20017;-73
2024/02/19 04:10:10;;;;;;;5.95;2.45;;;;;;;;;;5052175;28;20025;-72
2024/02/19 04:12:55;;;;;;;4.13;2.30;;;;;;;;;;5032801;28;20060;-73
2024/02/19 04:15:41;;;;;;;9.43;1.85;;;;;;;;;;5023201;28;20018;-73
2024/02/19 04:18:29;;;;;;;3.42;1.63;;;;;;;;;;5033401;28;20430;-73
2024/02/19 04:21:15;;;;;;;2.65;1.58;;;;;;;;;;5018913;28;20854;-72
2024/02/19 04:24:01;;;;;;;3.78;1.52;;;;;;;;;;5017968;28;20029;-73
2024/02/19 04:26:47;;;;;;;2.40;1.50;;;;;;;;;;5044100;28;20056;-73
2024/02/19 04:29:34;;;;;;;3.25;1.15;;;;;;;;;;5073075;28;20436;-72
2024/02/19 04:32:20;;;;;;;5.22;1.50;;;;;;;;;;5072469;28;20037;-72
2024/02/19 04:35:06;;;;;;;5.03;2.30;;;;;;;;;;5061414;28;20037;-72
2024/02/19 04:37:52;;;;;;;3.83;1.52;;;;;;;;;;5053731;28;20075;-72
2024/02/19 04:40:37;;;;;;;4.57;1.73;;;;;;;;;;5045221;28;20498;-72
2024/02/19 04:43:23;;;;;;;2.00;1.35;;;;;;;;;;5041473;28;20034;-72
2024/02/19 04:46:09;;;;;;;4.35;1.40;;;;;;;;;;5032399;28;20045;-72
2024/02/19 04:48:57;;;;;;;4.68;1.98;;;;;;;;;;5031765;28;20079;-72
2024/02/19 04:51:43;;;;;;;3.90;1.92;;;;;;;;;;5018671;28;20018;-72
2024/02/19 04:54:28;;;;;;;3.53;1.27;;;;;;;;;;5060449;28;20402;-72
2024/02/19 04:57:14;;;;;;;2.33;1.42;;;;;;;;;;5059525;28;20126;-72
2024/02/19 05:00:00;;;;;;;2.53;1.52;;;;;;;;;;5018232;28;20021;-72
2024/02/19 05:02:45;;;;;;;4.03;2.45;;;;;;;;;;5017633;28;20025;-72
2024/02/19 05:05:31;;;;;;;2.97;2.15;;;;;;;;;;5040112;28;20032;-72
2024/02/19 05:08:17;;;;;;;3.67;2.10;;;;;;;;;;5052794;28;20436;-72
2024/02/19 05:11:03;;;;;;;2.60;1.50;;;;;;;;;;5050536;28;20071;-72
2024/02/19 05:13:48;;;;;;;5.15;1.92;;;;;;;;;;5052561;28;20021;-72
2024/02/19 05:16:34;;;;;;;4.47;1.83;;;;;;;;;;5052068;28;20408;-72
2024/02/19 05:19:22;;;;;;;6.13;2.08;;;;;;;;;;5040893;28;20025;-72
2024/02/19 05:22:09;;;;;;;4.53;2.15;;;;;;;;;;5031501;28;20022;-72
2024/02/19 05:24:54;;;;;;;4.93;2.08;;;;;;;;;;5031612;28;20029;-72
2024/02/19 05:27:40;;;;;;;4.50;2.00;;;;;;;;;;5050289;28;20025;-72
2024/02/19 05:30:26;;;;;;;3.55;1.80;;;;;;;;;;5049041;28;20124;-72
2024/02/19 05:33:13;;;;;;;2.88;1.63;;;;;;;;;;5036987;28;20025;-72
2024/02/19 05:35:58;;;;;;;5.60;3.17;;;;;;;;;;5022840;28;20029;-72
2024/02/19 05:38:44;;;;;;;3.50;2.03;;;;;;;;;;5052297;28;20533;-73
2024/02/19 05:41:29;;;;;;;2.30;1.42;;;;;;;;;;5051695;28;20410;-72
2024/02/19 05:44:15;;;;;;;2.45;1.65;;;;;;;;;;5052288;28;20025;-72
2024/02/19 05:47:01;;;;;;;3.00;1.45;;;;;;;;;;5052848;28;20025;-72
2024/02/19 05:49:46;;;;;;;4.45;1.70;;;;;;;;;;5052928;28;20386;-72
2024/02/19 05:52:32;;;;;;;2.25;1.45;;;;;;;;;;5051992;28;20021;-72
2024/02/19 05:55:17;;;;;;;2.95;1.75;;;;;;;;;;5051683;28;20108;-72
2024/02/19 05:58:03;;;;;;;3.88;1.88;;;;;;;;;;5031130;28;20041;-72
2024/02/19 06:00:49;;;;;;;2.50;1.45;;;;;;;;;;5037875;28;20555;-72
2024/02/19 06:03:35;;;;;;;2.33;1.33;;;;;;;;;;5053348;28;20072;-72
2024/02/19 06:06:21;;;;;;;5.90;2.10;;;;;;;;;;5052387;28;20059;-72
2024/02/19 06:09:09;;;;;;;2.90;1.67;;;;;;;;;;5047643;28;20025;-72
2024/02/19 06:11:55;;;;;;;2.60;1.73;;;;;;;;;;5037153;28;20041;-72
2024/02/19 06:14:41;;;;;;;4.45;1.77;;;;;;;;;;5033691;28;20028;-72
2024/02/19 06:17:27;;;;;;;4.38;2.00;;;;;;;;;;5031579;28;20040;-72
2024/02/19 06:20:15;;;;;;;5.28;1.90;;;;;;;;;;5030791;28;20022;-72
2024/02/19 06:23:01;;;;;;;3.38;1.73;;;;;;;;;;5016690;28;20022;-72
2024/02/19 06:25:46;;;;;;;5.45;2.10;;;;;;;;;;5031178;28;20087;-72
2024/02/19 06:28:32;;;;;;;5.25;1.83;;;;;;;;;;5043104;28;20053;-72
2024/02/19 06:31:21;;;;;;;5.72;2.15;;;;;;;;;;5051216;28;20103;-72
2024/02/19 06:34:06;;;;;;;6.75;3.33;;;;;;;;;;5043449;28;20035;-72
2024/02/19 06:36:52;;;;;;;7.38;2.53;;;;;;;;;;5037029;28;20061;-72
2024/02/19 06:39:39;;;;;;;10.43;3.15;;;;;;;;;;5035193;28;20047;-72
2024/02/19 06:42:34;;;;;;;12.43;3.10;;;;;;;;;;5036436;28;20037;-72
2024/02/19 06:45:19;;;;;;;4.78;2.17;;;;;;;;;;5050428;28;20029;-72
2024/02/19 06:48:05;;;;;;;6.95;2.08;;;;;;;;;;5040260;28;20056;-72
2024/02/19 06:50:51;;;;;;;5.75;1.88;;;;;;;;;;5054073;28;20470;-72
2024/02/19 06:53:36;;;;;;;5.55;2.20;;;;;;;;;;5054808;28;20044;-72
2024/02/19 06:56:22;;;;;;;7.45;1.70;;;;;;;;;;5053493;28;20021;-72
2024/02/19 06:59:08;;;;;;;3.78;1.90;;;;;;;;;;5034320;28;20521;-72
2024/02/19 07:01:53;;;;;;;5.35;1.33;;;;;;;;;;5019025;28;20442;-72
2024/02/19 07:04:48;;;;;;;6.28;1.60;;;;;;;;;;5019347;28;20033;-72
2024/02/19 07:07:34;;;;;;;2.92;1.50;;;;;;;;;;5034686;28;20113;-72
2024/02/19 07:10:20;;;;;;;9.00;1.80;;;;;;;;;;5019414;28;20029;-72
2024/02/19 07:13:05;;;;;;;4.55;1.52;;;;;;;;;;5040746;28;20401;-72
2024/02/19 07:15:51;;;;;;;2.78;1.55;;;;;;;;;;5040385;28;20033;-72
2024/02/19 07:18:37;;;;;;;6.60;1.48;;;;;;;;;;5055194;28;20021;-72
2024/02/19 07:21:22;;;;;;;5.28;1.80;;;;;;;;;;5054367;28;20048;-72
2024/02/19 07:24:08;;;;;;;2.58;1.38;;;;;;;;;;5050599;28;20475;-72
2024/02/19 07:26:54;;;;;;;3.78;1.60;;;;;;;;;;5045305;28;20375;-72
2024/02/19 07:29:40;;;;;;;5.95;1.75;;;;;;;;;;5020165;28;20406;-72
2024/02/19 07:32:25;;;;;;;3.35;1.75;;;;;;;;;;5018583;28;20038;-72
2024/02/19 07:35:11;;;;;;;4.85;1.90;;;;;;;;;;5020784;28;20021;-72
2024/02/19 07:37:57;;;;;;;3.80;1.90;;;;;;;;;;5072168;28;20532;-73
2024/02/19 07:40:42;;;;;;;10.73;2.20;;;;;;;;;;5061562;28;20478;-72
2024/02/19 07:43:28;;;;;;;8.40;2.33;;;;;;;;;;5050541;28;20033;-71
2024/02/19 07:46:21;;;;;;;4.18;1.70;;;;;;;;;;5033901;28;20022;-72
2024/02/19 07:49:07;;;;;;;9.23;2.17;;;;;;;;;;5032838;28;20013;-72
2024/02/19 07:51:53;;;;;;;6.35;2.15;;;;;;;;;;5020623;28;20407;-72
2024/02/19 07:54:38;;;;;;;7.18;2.13;;;;;;;;;;5019479;28;20057;-72
2024/02/19 07:57:24;;;;;;;6.32;2.28;;;;;;;;;;5036944;28;20054;-72
2024/02/19 08:00:10;;;;;;;9.70;4.00;;;;;;;;;;5057641;28;20016;-72
2024/02/19 08:02:55;;;;;;;9.57;2.22;;;;;;;;;;5038246;28;20047;-72
2024/02/19 08:05:41;;;;;;;10.82;3.10;;;;;;;;;;5039482;28;20017;-72
2024/02/19 08:08:28;;;;;;;10.60;3.85;;;;;;;;;;5053025;28;20013;-72
2024/02/19 08:11:14;;;;;;;12.13;3.22;;;;;;;;;;5039398;28;20032;-72
2024/02/19 08:14:00;;;;;;;12.05;2.70;;;;;;;;;;5044778;28;20120;-72
2024/02/19 08:16:49;;;;;;;14.13;3.05;;;;;;;;;;5059783;28;20074;-72
2024/02/19 08:19:35;;;;;;;12.18;2.95;;;;;;;;;;5030123;28;20065;-72
2024/02/19 08:22:21;;;;;;;9.32;3.13;;;;;;;;;;5051292;28;20024;-72
2024/02/19 08:25:07;;;;;;;16.27;3.35;;;;;;;;;;5053166;28;20025;-72
2024/02/19 08:27:53;;;;;;;17.08;4.20;;;;;;;;;;5034509;28;20512;-72
2024/02/19 08:30:38;;;;;;;10.15;3.17;;;;;;;;;;5031865;28;20025;-72
2024/02/19 08:33:24;;;;;;;14.30;3.50;;;;;;;;;;5032141;28;20032;-72
2024/02/19 08:36:09;;;;;;;16.73;4.03;;;;;;;;;;5022263;28;20434;-72
2024/02/19 08:38:55;;;;;;;15.07;2.75;;;;;;;;;;5032580;28;20044;-73
2024/02/19 08:41:41;;;;;;;10.82;3.22;;;;;;;;;;5032651;28;20034;-72
2024/02/19 08:44:26;;;;;;;13.02;2.83;;;;;;;;;;5051640;28;20076;-73
2024/02/19 08:47:12;;;;;;;10.30;3.08;;;;;;;;;;5053198;28;20025;-72
2024/02/19 08:49:58;;;;;;;18.90;3.15;;;;;;;;;;5052613;28;20032;-73
2024/02/19 08:52:43;;;;;;;18.27;4.22;;;;;;;;;;5052042;28;20025;-73
2024/02/19 08:55:30;;;;;;;12.38;2.88;;;;;;;;;;5054265;28;20028;-72
2024/02/19 08:58:19;;;;;;;8.68;2.70;;;;;;;;;;5057141;28;20081;-72
2024/02/19 09:01:10;;;;;;;10.98;2.83;;;;;;;;;;5057802;28;20036;-73
2024/02/19 09:03:55;;;;;;;20.27;3.50;;;;;;;;;;5055971;28;20550;-72
2024/02/19 09:06:41;;;;;;;17.60;3.63;;;;;;;;;;5051506;28;20074;-72
2024/02/19 09:09:26;;;;;;;16.10;4.13;;;;;;;;;;5051892;28;20371;-72
2024/02/19 09:12:12;;;;;;;16.92;3.55;;;;;;;;;;5065420;23;20051;-72
2024/02/19 09:14:58;;;;;;;9.98;2.67;;;;;;;;;;5076795;28;20458;-72
2024/02/19 09:17:44;;;;;;;14.48;3.28;;;;;;;;;;5084504;28;20467;-72
2024/02/19 09:20:33;;;;;;;10.00;2.42;;;;;;;;;;5091913;28;20028;-72
2024/02/19 09:23:18;;;;;;;13.30;2.83;;;;;;;;;;5078686;28;20028;-72
2024/02/19 09:26:12;;;;;;;13.40;3.22;;;;;;;;;;5072140;28;20109;-72
2024/02/19 09:28:57;;;;;;;10.75;3.53;;;;;;;;;;5064436;28;20023;-72
2024/02/19 09:31:43;;;;;;;8.52;2.45;;;;;;;;;;5092695;28;20112;-70
2024/02/19 09:34:29;;;;;;;21.33;3.30;;;;;;;;;;5075239;28;20025;-69
2024/02/19 09:37:15;;;;;;;14.48;3.20;;;;;;;;;;5058047;28;20025;-69
2024/02/19 09:40:03;;;;;;;22.65;4.10;;;;;;;;;;5070891;28;20036;-70
2024/02/19 09:42:50;;;;;;;18.15;3.47;;;;;;;;;;5056767;28;20028;-70
2024/02/19 09:45:37;;;;;;;12.45;2.80;;;;;;;;;;5057521;28;20509;-69
2024/02/19 09:48:22;;;;;;;13.63;3.55;;;;;;;;;;5071927;28;20055;-71
2024/02/19 09:51:10;;;;;;;15.30;3.20;;;;;;;;;;5057321;28;20035;-69
2024/02/19 09:53:56;;;;;;;16.10;3.63;;;;;;;;;;5073277;28;20028;-69
2024/02/19 09:56:45;;;;;;;17.70;3.33;;;;;;;;;;5072233;28;20028;-68
2024/02/19 09:59:32;;;;;;;24.40;3.90;;;;;;;;;;5080903;28;20012;-69
2024/02/19 10:02:21;;;;;;;23.13;4.03;;;;;;;;;;5091290;28;20481;-69
2024/02/19 10:05:11;;;;;;;12.02;3.60;;;;;;;;;;5089399;28;20025;-69
2024/02/19 10:08:03;;;;;;;15.80;4.20;;;;;;;;;;5056941;28;20052;-69
2024/02/19 10:10:56;;;;;;;25.95;3.92;;;;;;;;;;5059655;28;20093;-69
2024/02/19 10:13:42;;;;;;;26.50;4.82;;;;;;;;;;5085970;28;20138;-69
2024/02/19 10:16:28;;;;;;;20.42;4.13;;;;;;;;;;5095000;28;20032;-69
2024/02/19 10:19:14;;;;;;;20.27;5.07;;;;;;;;;;5090988;28;20020;-69
2024/02/19 10:22:00;;;;;;;22.77;5.10;;;;;;;;;;5040684;28;20033;-69
2024/02/19 10:24:46;;;;;;;19.88;4.18;;;;;;;;;;5040084;28;20085;-69
2024/02/19 10:27:31;;;;;;;18.67;3.72;;;;;;;;;;5055682;28;20027;-69
2024/02/19 10:30:17;;;;;;;26.27;3.75;;;;;;;;;;5061105;28;20044;-69
2024/02/19 10:33:03;;;;;;;12.43;4.35;;;;;;;;;;5061381;28;20043;-70
2024/02/19 10:35:49;;;;;;;8.90;2.75;;;;;;;;;;5059715;28;20028;-69
2024/02/19 10:38:35;;;;;;;11.32;3.28;;;;;;;;;;5075035;28;20040;-69
2024/02/19 10:41:23;;;;;;;14.07;3.33;;;;;;;;;;5079267;28;20111;-70
2024/02/19 10:44:08;;;;;;;16.13;3.88;;;;;;;;;;5075266;28;20078;-69
2024/02/19 10:46:54;;;;;;;16.25;3.70;;;;;;;;;;5049384;28;20025;-69
2024/02/19 10:49:55;;;;;;;17.83;3.58;;;;;;;;;;5040493;28;20023;-69
2024/02/19 10:52:41;;;;;;;11.63;3.33;;;;;;;;;;5038413;28;20356;-70
2024/02/19 10:55:27;;;;;;;22.65;3.65;;;;;;;;;;5064011;28;20530;-70
2024/02/19 10:58:16;;;;;;;22.05;4.43;;;;;;;;;;5072901;28;20103;-70
2024/02/19 11:01:02;;;;;;;10.13;3.25;;;;;;;;;;5079981;28;20103;-69
2024/02/19 11:03:48;;;;;;;17.90;4.25;;;;;;;;;;5093887;28;20493;-70
2024/02/19 11:06:38;;;;;;;12.68;3.40;;;;;;;;;;5079293;28;20036;-70
2024/02/19 11:09:26;;;;;;;;;;;;;;;;;;5076857;28;20020;-70
2024/02/19 11:12:13;;;;;;;13.55;3.22;;;;;;;;;;5093172;28;19919;-69
2024/02/19 11:14:59;;;;;;;10.73;2.28;;;;;;;;;;5073789;28;20028;-70
2024/02/19 11:17:46;;;;;;;10.35;2.65;;;;;;;;;;5066420;28;20108;-69
2024/02/19 11:20:32;;;;;;;10.48;2.03;;;;;;;;;;5080234;28;20028;-70
2024/02/19 11:23:20;;;;;;;13.95;2.60;;;;;;;;;;5079310;28;20134;-70
2024/02/19 11:26:05;;;;;;;13.05;2.97;;;;;;;;;;5093784;28;20028;-70
2024/02/19 11:28:54;;;;;;;23.52;3.72;;;;;;;;;;5082289;28;20036;-70
2024/02/19 11:31:40;;;;;;;20.15;3.70;;;;;;;;;;5060190;28;20028;-70
2024/02/19 11:34:26;;;;;;;16.52;3.13;;;;;;;;;;5058923;28;20120;-69
2024/02/19 11:37:13;;;;;;;15.30;3.20;;;;;;;;;;5084233;28;20036;-69
2024/02/19 11:39:59;;;;;;;16.52;2.97;;;;;;;;;;5059337;28;20417;-69
2024/02/19 11:42:48;;;;;;;12.75;2.83;;;;;;;;;;5059748;28;20046;-69
2024/02/19 11:45:36;;;;;;;7.55;2.25;;;;;;;;;;5090330;28;20092;-69
2024/02/19 11:48:25;;;;;;;10.35;2.17;;;;;;;;;;5093715;28;20016;-70
2024/02/19 11:51:11;;;;;;;7.60;2.72;;;;;;;;;;5092743;28;20077;-70
2024/02/19 11:53:56;;;;;;;34.10;10.52;;;;;;;;;;5078172;28;20024;-70
2024/02/19 11:56:49;;;;;;;11.55;3.85;;;;;;;;;;5078897;28;20024;-69
2024/02/19 11:59:35;;;;;;;24.58;6.57;;;;;;;;;;5059634;28;20111;-69
2024/02/19 12:02:21;;;;;;;30.83;5.15;;;;;;;;;;5072267;28;20048;-69
2024/02/19 12:05:07;;;;;;;22.33;3.63;;;;;;;;;;5059056;28;20021;-70
2024/02/19 12:07:53;;;;;;;22.58;4.65;;;;;;;;;;5058465;28;20059;-70
2024/02/19 12:10:38;;;;;;;21.85;4.15;;;;;;;;;;5064296;28;20043;-70
2024/02/19 12:13:25;;;;;;;56.35;11.70;;;;;;;;;;5056957;28;20103;-71
2024/02/19 12:16:10;;;;;;;75.93;21.88;;;;;;;;;;5078949;28;20039;-70
2024/02/19 12:18:57;;;;;;;49.75;12.75;;;;;;;;;;5055083;28;20025;-70
2024/02/19 12:21:42;;;;;;;41.70;12.18;;;;;;;;;;5057090;28;20020;-69
2024/02/19 12:24:29;;;;;;;46.95;7.93;;;;;;;;;;5057438;28;20494;-69
2024/02/19 12:27:14;;;;;;;43.25;12.30;;;;;;;;;;5077929;28;20021;-70
2024/02/19 12:30:01;;;;;;;39.88;9.43;;;;;;;;;;5054575;28;20025;-70
2024/02/19 12:32:47;;;;;;;31.42;11.10;;;;;;;;;;5082276;28;20016;-69
2024/02/19 12:35:33;;;;;;;54.33;13.70;;;;;;;;;;5065876;28;20082;-69
2024/02/19 12:38:19;;;;;;;60.40;16.05;;;;;;;;;;5072275;28;20098;-69
2024/02/19 12:41:05;;;;;;;70.57;25.70;;;;;;;;;;5071611;28;20021;-69
2024/02/19 12:43:51;;;;;;;65.20;23.30;;;;;;;;;;5073965;28;20024;-69
2024/02/19 12:46:37;;;;;;;24.88;5.50;;;;;;;;;;5072900;28;20035;-69
2024/02/19 12:49:22;;;;;;;30.38;8.40;;;;;;;;;;5075150;28;20099;-69
2024/02/19 12:52:10;;;;;;;19.80;7.03;;;;;;;;;;5077586;28;20035;-69
2024/02/19 12:54:56;;;;;;;25.77;5.03;;;;;;;;;;5076210;28;20110;-70
2024/02/19 12:57:42;;;;;;;26.80;5.43;;;;;;;;;;5078729;28;20028;-69
2024/02/19 13:00:27;;;;;;;19.95;5.25;;;;;;;;;;5082757;28;20056;-70
2024/02/19 13:03:13;;;;;;;31.77;7.82;;;;;;;;;;5072104;28;20024;-69
2024/02/19 13:05:59;;;;;;;23.98;5.93;;;;;;;;;;5071375;28;20058;-69
2024/02/19 13:08:46;;;;;;;14.18;4.57;;;;;;;;;;5072176;28;20021;-69
2024/02/19 13:11:32;;;;;;;20.17;5.47;;;;;;;;;;5053936;28;20043;-70
2024/02/19 13:14:17;;;;;;;21.42;5.32;;;;;;;;;;5085901;28;20097;-69
2024/02/19 13:17:08;;;;;;;17.60;5.00;;;;;;;;;;5092896;28;20489;-70
2024/02/19 13:19:54;;;;;;;32.17;5.72;;;;;;;;;;5091029;28;20493;-69
2024/02/19 13:22:39;;;;;;;13.00;3.15;;;;;;;;;;5092995;28;20088;-70
2024/02/19 13:25:25;;;;;;;16.42;4.13;;;;;;;;;;5088393;28;20406;-69
2024/02/19 13:28:14;;;;;;;30.73;4.85;;;;;;;;;;5074592;28;20020;-69
2024/02/19 13:31:00;;;;;;;22.33;3.97;;;;;;;;;;5077897;28;20052;-70
2024/02/19 13:33:51;;;;;;;18.38;5.53;;;;;;;;;;5083688;28;20024;-69
2024/02/19 13:36:39;;;;;;;17.10;3.75;;;;;;;;;;5081539;28;20545;-70
2024/02/19 13:39:25;;;;;;;14.50;3.50;;;;;;;;;;5073280;28;20107;-69
2024/02/19 13:42:12;;;;;;;16.88;3.88;;;;;;;;;;5088423;28;20465;-69
2024/02/19 13:44:57;;;;;;;22.05;3.70;;;;;;;;;;5055801;28;20029;-69
2024/02/19 13:47:44;;;;;;;13.05;3.67;;;;;;;;;;5059713;28;20478;-69
2024/02/19 13:50:30;;;;;;;8.50;3.17;;;;;;;;;;5076484;28;20055;-70
2024/02/19 13:53:15;;;;;;;27.63;3.95;;;;;;;;;;5075886;28;20031;-70
2024/02/19 13:56:01;;;;;;;16.05;3.72;;;;;;;;;;5060052;28;20025;-70
2024/02/19 13:58:47;;;;;;;20.42;3.67;;;;;;;;;;5060986;28;20028;-70
2024/02/19 14:01:33;;;;;;;14.07;3.30;;;;;;;;;;5075444;28;20035;-69
2024/02/19 14:04:19;;;;;;;20.20;4.63;;;;;;;;;;5075460;28;20030;-69
2024/02/19 14:07:06;;;;;;;16.40;4.22;;;;;;;;;;5076246;28;20404;-69
2024/02/19 14:09:51;;;;;;;20.45;3.55;;;;;;;;;;5062350;28;20031;-69
2024/02/19 14:12:37;;;;;;;21.40;3.58;;;;;;;;;;5075765;28;20028;-69
2024/02/19 14:15:23;;;;;;;18.85;3.90;;;;;;;;;;5054730;28;20032;-69
2024/02/19 14:18:09;;;;;;;25.58;3.72;;;;;;;;;;5054766;28;20021;-69
2024/02/19 14:20:56;;;;;;;14.82;4.00;;;;;;;;;;5054798;28;20053;-69
2024/02/19 14:23:41;;;;;;;27.75;3.90;;;;;;;;;;5055281;28;20028;-69
2024/02/19 14:26:28;;;;;;;36.97;11.80;;;;;;;;;;5054944;28;20036;-69
2024/02/19 14:29:15;;;;;;;29.70;18.00;;;;;;;;;;5071126;28;20497;-69
2024/02/19 14:32:00;;;;;;;27.02;8.77;;;;;;;;;;5075055;28;20056;-69
2024/02/19 14:34:46;;;;;;;19.25;8.65;;;;;;;;;;5074279;28;20031;-69
2024/02/19 14:37:38;;;;;;;19.52;4.50;;;;;;;;;;5082476;28;20031;-69
2024/02/19 14:40:24;;;;;;;17.58;7.57;;;;;;;;;;5094331;28;20405;-69
2024/02/19 14:43:10;;;;;;;14.43;5.47;;;;;;;;;;5086850;28;20031;-69
2024/02/19 14:45:56;;;;;;;16.52;5.28;;;;;;;;;;5061290;28;20021;-69
2024/02/19 14:48:42;;;;;;;18.48;6.50;;;;;;;;;;5074881;28;20045;-69
2024/02/19 14:51:28;;;;;;;23.65;5.72;;;;;;;;;;5074412;28;20043;-69
2024/02/19 14:54:13;;;;;;;20.40;5.15;;;;;;;;;;5075670;28;20025;-69
2024/02/19 14:56:59;;;;;;;24.90;7.18;;;;;;;;;;5075216;28;20031;-69
2024/02/19 14:59:47;;;;;;;25.33;4.72;;;;;;;;;;5086857;28;20032;-69
2024/02/19 15:02:32;;;;;;;17.77;9.32;;;;;;;;;;5093542;28;20210;-69
2024/02/19 15:05:18;;;;;;;20.92;7.30;;;;;;;;;;5093656;28;20024;-69
2024/02/19 15:08:04;;;;;;;38.83;13.13;;;;;;;;;;5074196;28;20032;-69
2024/02/19 15:10:51;;;;;;;25.27;8.00;;;;;;;;;;5073499;28;20029;-70
2024/02/19 15:13:36;;;;;;;25.65;10.38;;;;;;;;;;5078252;28;20024;-69
2024/02/19 15:16:22;;;;;;;19.70;7.28;;;;;;;;;;5074710;28;20035;-71
2024/02/19 15:19:07;;;;;;;20.40;6.43;;;;;;;;;;5058996;28;20020;-70
2024/02/19 15:21:53;;;;;;;29.73;7.93;;;;;;;;;;5074517;28;20511;-70
2024/02/19 15:24:42;;;;;;;20.73;5.90;;;;;;;;;;5073755;28;20099;-71
2024/02/19 15:27:27;;;;;;;23.48;5.20;;;;;;;;;;5074397;28;20024;-69
2024/02/19 15:30:13;;;;;;;25.27;5.50;;;;;;;;;;5092684;28;20077;-69
2024/02/19 15:32:59;;;;;;;15.50;4.60;;;;;;;;;;5059520;28;20024;-69
2024/02/19 15:35:45;;;;;;;24.30;5.30;;;;;;;;;;5074111;28;20028;-69
2024/02/19 15:38:31;;;;;;;21.20;4.60;;;;;;;;;;5085278;28;20027;-69
2024/02/19 15:41:19;;;;;;;26.50;5.35;;;;;;;;;;5094672;28;20020;-69
2024/02/19 15:44:05;;;;;;;27.25;4.32;;;;;;;;;;5083486;28;20027;-70
2024/02/19 15:46:53;;;;;;;16.63;5.53;;;;;;;;;;5073993;28;20138;-70
2024/02/19 15:49:39;;;;;;;19.58;5.03;;;;;;;;;;5075168;28;20490;-69
2024/02/19 15:52:24;;;;;;;24.65;5.03;;;;;;;;;;5073118;28;20111;-70
2024/02/19 15:55:11;;;;;;;31.02;5.55;;;;;;;;;;5072930;28;20017;-69
2024/02/19 15:57:56;;;;;;;20.88;5.18;;;;;;;;;;5071901;28;20440;-69
2024/02/19 16:00:46;;;;;;;18.08;4.60;;;;;;;;;;5073458;28;20116;-70
2024/02/19 16:03:33;;;;;;;34.17;13.70;;;;;;;;;;5059297;28;20398;-70
2024/02/19 16:06:20;;;;;;;13.82;4.95;;;;;;;;;;5073659;28;20401;-70
2024/02/19 16:09:10;;;;;;;24.45;5.13;;;;;;;;;;5072180;28;20044;-70
2024/02/19 16:11:57;;;;;;;21.33;6.20;;;;;;;;;;5058349;28;20024;-69
2024/02/19 16:14:43;;;;;;;51.72;7.70;;;;;;;;;;5082290;28;20032;-69
2024/02/19 16:17:28;;;;;;;21.75;4.93;;;;;;;;;;5092440;28;20024;-70
2024/02/19 16:20:14;;;;;;;26.23;5.43;;;;;;;;;;5084993;28;20405;-70
2024/02/19 16:23:00;;;;;;;32.80;6.28;;;;;;;;;;5093332;28;20020;-70
2024/02/19 16:25:45;;;;;;;35.75;7.82;;;;;;;;;;5084131;28;20103;-70
2024/02/19 16:28:32;;;;;;;25.67;7.55;;;;;;;;;;5090814;28;20078;-70